Time;durP1;ratioP1;P1;durP2;ratioP2;P2;SDS_P1;SDS_P2;PMS_P1;PMS_P2;Temp;Humidity;BMP_temperature;BMP_pressure;BME280_temperature;BME280_humidity;BME280_pressure;Samples;Min_cycle;Max_cycle;Signal;HPM_P1;HPM_P2
2022/10/01 00:01:12;;;;;;;6.13;4.38;;;14.90;99.90;;;;;;5050370;28;20041;-65
2022/10/01 00:03:38;;;;;;;7.88;4.35;;;15.90;99.90;;;;;;5050549;28;20041;-64
2022/10/01 00:06:16;;;;;;;6.82;4.95;;;14.00;99.90;;;;;;5050547;28;20392;-64
2022/10/01 00:08:47;;;;;;;6.40;5.00;;;13.70;99.90;;;;;;5052080;28;20048;-65
2022/10/01 00:11:15;;;;;;;7.97;5.30;;;14.30;99.90;;;;;;5050114;28;20049;-65
2022/10/01 00:13:45;;;;;;;6.45;5.35;;;14.40;99.90;;;;;;5050341;28;20190;-65
2022/10/01 00:16:17;;;;;;;8.45;5.88;;;14.90;99.90;;;;;;5050181;28;20469;-65
2022/10/01 00:18:44;;;;;;;9.75;5.30;;;15.10;99.90;;;;;;5050582;28;20041;-66
2022/10/01 00:21:13;;;;;;;10.07;6.20;;;14.20;99.90;;;;;;5051601;28;20380;-65
2022/10/01 00:23:39;;;;;;;8.30;5.63;;;13.90;99.90;;;;;;5050301;28;20033;-66
2022/10/01 00:26:14;;;;;;;7.25;6.22;;;14.10;99.90;;;;;;5050227;28;20072;-65
2022/10/01 00:28:41;;;;;;;8.35;6.00;;;13.50;99.90;;;;;;5050059;28;20048;-66
2022/10/01 00:31:08;;;;;;;9.02;6.03;;;14.80;99.90;;;;;;5049909;28;20041;-65
2022/10/01 00:33:35;;;;;;;10.95;7.13;;;13.50;99.90;;;;;;5050042;28;20051;-66
2022/10/01 00:36:02;;;;;;;9.32;7.32;;;13.60;99.90;;;;;;5050123;28;20043;-66
2022/10/01 00:38:28;;;;;;;9.88;7.22;;;15.00;99.90;;;;;;5050149;28;20073;-67
2022/10/01 00:40:54;;;;;;;9.02;6.90;;;15.00;99.90;;;;;;5050195;28;20142;-67
2022/10/01 00:43:28;;;;;;;10.35;6.53;;;15.00;99.90;;;;;;5050034;28;20076;-68
2022/10/01 00:45:59;;;;;;;7.70;6.05;;;13.70;99.90;;;;;;5050097;28;20127;-67
2022/10/01 00:48:28;;;;;;;9.52;7.25;;;14.70;99.90;;;;;;5050053;28;20406;-67
2022/10/01 00:50:53;;;;;;;11.52;6.82;;;13.60;99.90;;;;;;5050217;28;20131;-67
2022/10/01 00:53:20;;;;;;;10.23;8.40;;;13.70;99.90;;;;;;5050006;28;20128;-67
2022/10/01 00:55:51;;;;;;;13.60;8.68;;;13.60;99.90;;;;;;5049463;28;20045;-66
2022/10/01 00:58:18;;;;;;;8.93;7.10;;;13.80;99.90;;;;;;5049808;28;20041;-66
2022/10/01 01:00:44;;;;;;;10.00;7.25;;;15.00;99.90;;;;;;5049613;28;20037;-66
2022/10/01 01:03:11;;;;;;;9.15;7.00;;;13.70;99.90;;;;;;5049823;28;20398;-66
2022/10/01 01:05:38;;;;;;;10.43;7.22;;;13.70;99.90;;;;;;5052836;28;20037;-66
2022/10/01 01:08:04;;;;;;;10.70;6.07;;;13.60;99.90;;;;;;5037460;28;20386;-67
2022/10/01 01:10:39;;;;;;;8.93;6.25;;;13.70;99.90;;;;;;5053434;28;20061;-66
2022/10/01 01:13:21;;;;;;;9.73;7.32;;;15.10;99.90;;;;;;5053738;28;20124;-66
2022/10/01 01:15:52;;;;;;;8.25;5.03;;;13.80;99.90;;;;;;5053692;28;20608;-66
2022/10/01 01:18:44;;;;;;;9.02;5.88;;;15.20;99.90;;;;;;5053671;28;20456;-66
2022/10/01 01:21:35;;;;;;;9.05;5.47;;;13.70;99.90;;;;;;5038206;28;20107;-66
2022/10/01 01:24:12;;;;;;;8.40;5.15;;;13.80;99.90;;;;;;5053869;28;20036;-66
2022/10/01 01:27:01;;;;;;;6.60;4.88;;;13.80;99.90;;;;;;5053500;28;20041;-66
2022/10/01 01:29:59;;;;;;;6.93;4.85;;;15.20;99.90;;;;;;5053608;28;20490;-66
2022/10/01 01:32:49;;;;;;;7.90;5.00;;;14.00;99.90;;;;;;5041680;28;20052;-66
2022/10/01 01:35:30;;;;;;;6.10;4.57;;;15.10;99.90;;;;;;5053600;28;20076;-66
2022/10/01 01:38:01;;;;;;;5.93;4.45;;;13.90;99.90;;;;;;5053253;28;20045;-66
2022/10/01 01:40:29;;;;;;;8.85;5.07;;;14.20;99.90;;;;;;5053112;28;20048;-66
2022/10/01 01:42:57;;;;;;;7.30;4.97;;;14.30;99.90;;;;;;5053304;28;20041;-66
2022/10/01 01:45:27;;;;;;;7.55;4.75;;;14.90;99.90;;;;;;5053205;28;20047;-66
2022/10/01 01:47:54;;;;;;;5.78;4.38;;;15.40;99.90;;;;;;5036591;28;20048;-66
2022/10/01 01:50:24;;;;;;;5.00;4.20;;;14.50;99.90;;;;;;5053048;28;20096;-66
2022/10/01 01:52:51;;;;;;;6.03;4.38;;;14.40;99.90;;;;;;5036704;28;20049;-65
2022/10/01 01:55:18;;;;;;;9.45;4.93;;;15.60;99.90;;;;;;5052554;28;20045;-66
2022/10/01 01:57:43;;;;;;;5.25;4.28;;;13.90;99.90;;;;;;5052939;28;20528;-66
2022/10/01 02:00:11;;;;;;;4.65;3.60;;;15.60;99.90;;;;;;5052620;28;20041;-66
2022/10/01 02:02:38;;;;;;;6.75;4.32;;;15.50;99.90;;;;;;5052841;28;20083;-66
2022/10/01 02:05:08;;;;;;;5.70;3.22;;;14.80;99.90;;;;;;5052755;28;20041;-66
2022/10/01 02:08:20;;;;;;;6.70;4.15;;;15.70;99.90;;;;;;5053048;28;20037;-65
2022/10/01 02:11:27;;;;;;;3.58;2.97;;;15.90;99.90;;;;;;5052304;28;20095;-66
2022/10/01 02:14:01;;;;;;;4.45;3.03;;;14.40;99.90;;;;;;4979254;28;20077;-65
2022/10/01 02:16:41;;;;;;;5.22;3.20;;;14.20;99.90;;;;;;4995263;28;20073;-66
2022/10/01 02:19:34;;;;;;;3.00;2.70;;;14.50;99.90;;;;;;5047267;28;20131;-66
2022/10/01 02:22:03;;;;;;;3.35;2.72;;;15.90;99.90;;;;;;5052736;28;20037;-65
2022/10/01 02:24:40;;;;;;;3.00;2.70;;;16.10;99.90;;;;;;5052337;28;20041;-65
2022/10/01 02:27:19;;;;;;;2.85;2.53;;;15.70;99.90;;;;;;5052326;28;20135;-66
2022/10/01 02:29:46;;;;;;;3.38;2.53;;;14.60;99.90;;;;;;5052388;28;20455;-66
2022/10/01 02:32:13;;;;;;;2.20;1.98;;;14.20;99.90;;;;;;5052195;28;20049;-65
2022/10/01 02:34:40;;;;;;;2.50;1.80;;;14.40;99.90;;;;;;5053572;28;20055;-65
2022/10/01 02:37:08;;;;;;;9.63;2.25;;;16.10;99.90;;;;;;5053575;28;20525;-65
2022/10/01 02:39:37;;;;;;;1.80;1.70;;;14.30;99.90;;;;;;5053370;28;20045;-65
2022/10/01 02:42:04;;;;;;;1.60;1.50;;;15.10;99.90;;;;;;5052145;28;20033;-64
2022/10/01 02:44:36;;;;;;;1.83;1.73;;;14.20;99.90;;;;;;5051887;28;20033;-65
2022/10/01 02:47:11;;;;;;;1.85;1.75;;;14.40;99.90;;;;;;5053255;28;20028;-65
2022/10/01 02:49:40;;;;;;;2.60;1.80;;;14.20;99.90;;;;;;5052280;28;20045;-65
2022/10/01 02:52:18;;;;;;;2.40;1.80;;;16.60;99.90;;;;;;5052051;28;20044;-64
2022/10/01 02:54:59;;;;;;;1.42;1.33;;;15.00;99.90;;;;;;5035012;28;20041;-64
2022/10/01 02:57:28;;;;;;;1.80;1.70;;;15.80;99.90;;;;;;5051944;28;20402;-65
2022/10/01 02:59:56;;;;;;;1.67;1.50;;;16.40;99.90;;;;;;5052950;28;20052;-65
2022/10/01 03:02:22;;;;;;;2.60;2.15;;;16.10;99.90;;;;;;5052025;28;20040;-65
2022/10/01 03:04:48;;;;;;;2.42;1.88;;;15.70;99.90;;;;;;5051655;28;20144;-65
2022/10/01 03:07:15;;;;;;;2.17;1.98;;;15.60;99.90;;;;;;5051739;28;20073;-65
2022/10/01 03:09:41;;;;;;;3.30;2.58;;;16.00;99.90;;;;;;5052637;28;20119;-65
2022/10/01 03:12:07;;;;;;;2.30;1.83;;;14.60;99.90;;;;;;5051822;28;20570;-65
2022/10/01 03:14:33;;;;;;;2.40;2.20;;;16.20;99.90;;;;;;5051379;28;20365;-65
2022/10/01 03:16:59;;;;;;;3.60;2.60;;;16.30;99.90;;;;;;5051301;28;20068;-65
2022/10/01 03:19:24;;;;;;;2.65;2.42;;;15.80;99.90;;;;;;5051394;28;20522;-65
2022/10/01 03:21:50;;;;;;;2.38;2.03;;;16.60;99.90;;;;;;5052773;28;20487;-65
2022/10/01 03:24:15;;;;;;;3.72;2.63;;;15.70;99.90;;;;;;5051330;28;20505;-65
2022/10/01 03:26:41;;;;;;;3.67;2.25;;;14.60;99.90;;;;;;5052305;28;20077;-64
2022/10/01 03:29:06;;;;;;;2.83;2.50;;;15.80;99.90;;;;;;5050950;28;20051;-65
2022/10/01 03:31:32;;;;;;;3.20;2.42;;;16.70;99.90;;;;;;5051071;28;20045;-65
2022/10/01 03:33:59;;;;;;;4.15;2.88;;;15.30;99.90;;;;;;5052575;28;20513;-65
2022/10/01 03:36:25;;;;;;;2.83;2.33;;;16.20;99.90;;;;;;5051192;28;20044;-65
2022/10/01 03:38:51;;;;;;;3.25;2.67;;;15.70;99.90;;;;;;5051253;28;20447;-65
2022/10/01 03:41:16;;;;;;;3.67;2.53;;;16.30;99.90;;;;;;5051050;28;20131;-64
2022/10/01 03:43:42;;;;;;;3.40;2.85;;;15.10;99.90;;;;;;5050979;28;20068;-65
2022/10/01 03:46:07;;;;;;;4.57;2.38;;;16.40;99.90;;;;;;5050708;28;20068;-65
2022/10/01 03:48:33;;;;;;;6.68;2.80;;;15.30;99.90;;;;;;5050891;28;20052;-65
2022/10/01 03:50:59;;;;;;;3.67;2.72;;;14.90;99.90;;;;;;5052218;28;20380;-65
2022/10/01 03:53:26;;;;;;;3.05;2.63;;;16.90;99.90;;;;;;5050823;28;20044;-65
2022/10/01 03:55:52;;;;;;;3.83;2.53;;;16.80;99.90;;;;;;5050055;28;20092;-65
2022/10/01 03:58:18;;;;;;;3.88;2.70;;;15.10;99.90;;;;;;5050641;28;20052;-65
2022/10/01 04:00:47;;;;;;;6.40;3.50;;;16.70;99.90;;;;;;5033894;28;20041;-65
2022/10/01 04:03:17;;;;;;;4.47;2.88;;;15.20;99.90;;;;;;5050610;28;20474;-65
2022/10/01 04:05:43;;;;;;;5.60;2.40;;;16.90;99.90;;;;;;5050526;28;20036;-65
2022/10/01 04:08:10;;;;;;;5.45;3.10;;;15.60;99.90;;;;;;5050533;28;20461;-64
2022/10/01 04:10:36;;;;;;;6.00;3.10;;;16.80;99.90;;;;;;5050259;28;20057;-65
2022/10/01 04:13:02;;;;;;;5.65;3.22;;;17.10;99.90;;;;;;5050509;28;20086;-65
2022/10/01 04:15:28;;;;;;;6.93;3.40;;;16.80;99.90;;;;;;5050520;28;20083;-65
2022/10/01 04:17:53;;;;;;;6.78;3.10;;;15.20;99.90;;;;;;5050372;28;20075;-64
2022/10/01 04:20:19;;;;;;;11.27;3.55;;;16.10;99.90;;;;;;5033729;28;20571;-65
2022/10/01 04:22:45;;;;;;;8.98;2.97;;;16.20;99.90;;;;;;5050298;28;20036;-66
2022/10/01 04:25:12;;;;;;;6.75;3.03;;;16.00;99.90;;;;;;5050040;28;20043;-65
2022/10/01 04:27:41;;;;;;;7.10;2.97;;;16.00;99.90;;;;;;5050359;28;20487;-65
2022/10/01 04:30:09;;;;;;;9.25;3.78;;;16.70;99.90;;;;;;5050214;28;20525;-65
2022/10/01 04:32:34;;;;;;;7.32;3.28;;;16.00;99.90;;;;;;5050441;28;20128;-65
2022/10/01 04:35:03;;;;;;;19.45;3.33;;;15.20;99.90;;;;;;5050362;28;20155;-65
2022/10/01 04:37:29;;;;;;;7.72;3.30;;;17.00;99.90;;;;;;5050143;28;20137;-65
2022/10/01 04:39:55;;;;;;;12.00;2.80;;;16.90;99.90;;;;;;5048992;28;20045;-65
2022/10/01 04:42:21;;;;;;;14.15;3.28;;;16.20;99.90;;;;;;5050266;28;20198;-64
2022/10/01 04:44:46;;;;;;;12.90;2.83;;;15.70;99.90;;;;;;5051308;28;20076;-64
2022/10/01 04:47:12;;;;;;;25.85;3.38;;;17.30;99.90;;;;;;5049947;28;20037;-65
2022/10/01 04:49:38;;;;;;;26.33;4.07;;;15.70;99.90;;;;;;5050035;28;20120;-65
2022/10/01 04:52:04;;;;;;;37.05;3.55;;;15.80;99.90;;;;;;5049984;28;20047;-65
2022/10/01 04:54:30;;;;;;;33.17;3.85;;;15.70;99.90;;;;;;5049496;28;20456;-65
2022/10/01 04:56:57;;;;;;;39.92;5.63;;;16.60;99.90;;;;;;5050229;28;20061;-65
2022/10/01 04:59:22;;;;;;;41.65;4.00;;;16.90;99.90;;;;;;5049636;28;20490;-65
2022/10/01 05:01:48;;;;;;;27.48;3.72;;;17.40;99.90;;;;;;5050104;28;20091;-65
2022/10/01 05:04:14;;;;;;;34.28;4.15;;;16.20;99.90;;;;;;5033499;28;20033;-65
2022/10/01 05:06:40;;;;;;;32.95;4.35;;;17.40;99.90;;;;;;5049819;28;20041;-65
2022/10/01 05:09:06;;;;;;;25.10;3.60;;;15.80;99.90;;;;;;5050015;28;20051;-66
2022/10/01 05:11:33;;;;;;;36.63;4.63;;;17.10;99.90;;;;;;5050808;28;20048;-65
2022/10/01 05:13:59;;;;;;;36.30;4.68;;;15.90;99.90;;;;;;5049713;28;20061;-66
2022/10/01 05:16:24;;;;;;;39.28;4.32;;;16.10;99.90;;;;;;5049392;28;20044;-66
2022/10/01 05:18:50;;;;;;;30.52;3.50;;;17.50;99.90;;;;;;5050028;28;20094;-66
2022/10/01 05:21:15;;;;;;;36.25;4.05;;;16.10;99.90;;;;;;5049667;28;20041;-65
2022/10/01 05:23:41;;;;;;;27.02;3.53;;;16.10;99.90;;;;;;5049660;28;20460;-65
2022/10/01 05:26:07;;;;;;;23.35;3.60;;;17.60;99.90;;;;;;5049284;28;20037;-65
2022/10/01 05:28:34;;;;;;;30.70;3.35;;;16.00;99.90;;;;;;5051073;28;20044;-66
2022/10/01 05:31:03;;;;;;;40.88;4.18;;;17.00;99.90;;;;;;5049382;28;20049;-65
2022/10/01 05:33:30;;;;;;;31.60;3.42;;;18.10;99.90;;;;;;5049385;28;20056;-65
2022/10/01 05:35:58;;;;;;;30.40;4.30;;;16.50;99.90;;;;;;5049208;28;20513;-66
2022/10/01 05:38:24;;;;;;;25.33;3.53;;;16.60;99.90;;;;;;5048655;28;20040;-65
2022/10/01 05:40:50;;;;;;;30.88;3.70;;;17.50;99.90;;;;;;5050526;28;20049;-66
2022/10/01 05:43:17;;;;;;;29.30;3.70;;;16.90;99.90;;;;;;5050889;28;20513;-65
2022/10/01 05:45:43;;;;;;;23.23;3.40;;;16.30;99.90;;;;;;5049327;28;20056;-65
2022/10/01 05:48:09;;;;;;;29.23;3.60;;;15.70;99.90;;;;;;5050784;28;20045;-66
2022/10/01 05:50:42;;;;;;;28.20;3.78;;;16.60;99.90;;;;;;5050293;28;20033;-66
2022/10/01 05:53:10;;;;;;;34.25;4.50;;;15.60;99.90;;;;;;5053129;28;20056;-65
2022/10/01 05:55:36;;;;;;;34.67;4.47;;;17.60;99.90;;;;;;5052437;28;20037;-65
2022/10/01 05:58:10;;;;;;;34.78;4.38;;;15.70;99.90;;;;;;5053328;28;20090;-65
2022/10/01 06:00:37;;;;;;;26.63;3.47;;;17.70;99.90;;;;;;5052965;28;20140;-65
2022/10/01 06:03:04;;;;;;;35.28;3.80;;;17.80;99.90;;;;;;5054173;28;20045;-66
2022/10/01 06:05:31;;;;;;;25.42;3.58;;;17.80;99.90;;;;;;5052839;28;20494;-65
2022/10/01 06:07:57;;;;;;;29.17;3.72;;;15.90;99.90;;;;;;5053095;28;20041;-65
2022/10/01 06:10:23;;;;;;;17.90;3.22;;;17.70;99.90;;;;;;5052592;28;20049;-65
2022/10/01 06:12:49;;;;;;;36.38;3.97;;;15.60;99.90;;;;;;5052735;28;20063;-65
2022/10/01 06:15:16;;;;;;;36.78;5.25;;;15.60;99.90;;;;;;5052467;28;20424;-66
2022/10/01 06:17:45;;;;;;;42.25;3.95;;;17.50;99.90;;;;;;5054028;28;20494;-65
2022/10/01 06:20:20;;;;;;;26.38;3.13;;;16.10;99.90;;;;;;5052574;28;20049;-65
2022/10/01 06:22:53;;;;;;;33.92;3.65;;;15.80;99.90;;;;;;5052583;28;20088;-66
2022/10/01 06:25:19;;;;;;;28.60;3.60;;;17.30;99.90;;;;;;5053769;28;20044;-66
2022/10/01 06:27:53;;;;;;;33.28;3.38;;;16.20;99.90;;;;;;5053847;28;20491;-65
2022/10/01 06:30:18;;;;;;;21.40;3.25;;;16.10;99.90;;;;;;5052306;28;20045;-65
2022/10/01 06:32:43;;;;;;;27.42;3.25;;;17.40;99.90;;;;;;5035817;28;20457;-66
2022/10/01 06:35:09;;;;;;;25.92;3.47;;;17.90;99.90;;;;;;5052321;28;20482;-64
2022/10/01 06:37:38;;;;;;;37.83;3.58;;;16.60;99.90;;;;;;5052268;28;20048;-65
2022/10/01 06:40:05;;;;;;;25.73;3.35;;;16.90;99.90;;;;;;5051985;28;20384;-66
2022/10/01 06:42:30;;;;;;;25.15;3.42;;;16.30;99.90;;;;;;5052159;28;20045;-65
2022/10/01 06:44:56;;;;;;;29.73;3.53;;;17.50;99.90;;;;;;5052244;28;20049;-65
2022/10/01 06:47:21;;;;;;;35.33;4.00;;;15.50;99.90;;;;;;5051979;28;20661;-65
2022/10/01 06:49:47;;;;;;;29.33;4.38;;;17.70;99.90;;;;;;5052079;28;20379;-66
2022/10/01 06:54:58;;;;;;;32.88;3.55;;;15.50;99.90;;;;;;5051909;28;20171;-65
2022/10/01 06:57:24;;;;;;;27.73;4.05;;;15.70;99.90;;;;;;5052224;28;20049;-65
2022/10/01 06:59:50;;;;;;;24.45;3.60;;;15.70;99.90;;;;;;5051730;28;20045;-65
2022/10/01 07:02:27;;;;;;;30.58;3.47;;;16.20;99.90;;;;;;5050818;28;20127;-65
2022/10/01 07:04:59;;;;;;;32.60;4.00;;;18.10;99.90;;;;;;5052100;28;20102;-66
2022/10/01 07:07:29;;;;;;;25.50;3.55;;;18.20;99.90;;;;;;5052039;28;20029;-65
2022/10/01 07:09:56;;;;;;;28.08;3.25;;;18.10;99.90;;;;;;5051630;28;20048;-65
2022/10/01 07:12:22;;;;;;;15.38;2.95;;;18.50;99.90;;;;;;5052813;28;20133;-65
2022/10/01 07:14:47;;;;;;;23.40;3.10;;;18.50;99.90;;;;;;5051400;28;20156;-66
2022/10/01 07:17:13;;;;;;;22.60;2.97;;;16.30;99.90;;;;;;5052863;28;20550;-65
2022/10/01 07:19:38;;;;;;;34.22;3.83;;;16.50;99.90;;;;;;5052667;28;20037;-65
2022/10/01 07:22:04;;;;;;;29.52;3.80;;;16.60;99.90;;;;;;5051743;28;20128;-66
2022/10/01 07:24:29;;;;;;;32.45;3.15;;;17.50;99.90;;;;;;5051266;28;20037;-66
2022/10/01 07:26:55;;;;;;;24.52;4.20;;;17.90;99.90;;;;;;5051248;28;20552;-66
2022/10/01 07:29:22;;;;;;;27.50;3.58;;;16.90;99.90;;;;;;5034586;28;20037;-66
2022/10/01 07:31:49;;;;;;;27.95;3.60;;;17.40;99.90;;;;;;5051173;28;20044;-66
2022/10/01 07:34:15;;;;;;;22.00;3.20;;;17.10;99.90;;;;;;5051214;28;20045;-66
2022/10/01 07:36:44;;;;;;;28.75;3.33;;;19.20;99.90;;;;;;5052538;28;20102;-66
2022/10/01 07:39:10;;;;;;;25.65;3.38;;;18.10;99.90;;;;;;5051154;28;20045;-66
2022/10/01 07:41:36;;;;;;;30.23;4.28;;;18.70;99.90;;;;;;5052131;28;20124;-65
2022/10/01 07:44:02;;;;;;;28.02;4.05;;;18.80;99.90;;;;;;5052256;28;20463;-66
2022/10/01 07:46:28;;;;;;;32.50;4.13;;;18.90;99.90;;;;;;5050750;28;20430;-66
2022/10/01 07:48:56;;;;;;;34.05;4.13;;;18.60;99.90;;;;;;5051227;28;20052;-66
2022/10/01 07:51:23;;;;;;;16.15;3.17;;;17.60;99.90;;;;;;5034260;28;20079;-66
2022/10/01 07:53:49;;;;;;;17.48;2.67;;;17.40;99.90;;;;;;5050652;28;20049;-66
2022/10/01 07:56:15;;;;;;;21.17;2.67;;;17.30;99.90;;;;;;5050410;28;20079;-66
2022/10/01 07:58:42;;;;;;;13.57;2.67;;;17.30;99.90;;;;;;5051988;28;20041;-66
2022/10/01 08:01:08;;;;;;;18.35;2.83;;;17.10;99.90;;;;;;5050573;28;20124;-66
2022/10/01 08:03:34;;;;;;;14.32;2.30;;;17.80;99.90;;;;;;5050632;28;20073;-66
2022/10/01 08:06:02;;;;;;;11.70;2.10;;;17.00;99.90;;;;;;5050875;28;20082;-67
2022/10/01 08:08:29;;;;;;;18.90;2.40;;;17.00;99.90;;;;;;5050570;28;20095;-66
2022/10/01 08:10:56;;;;;;;15.32;2.50;;;17.60;99.90;;;;;;5050027;28;20041;-67
2022/10/01 08:13:24;;;;;;;25.45;2.90;;;17.20;99.90;;;;;;5050461;28;20131;-66
2022/10/01 08:15:53;;;;;;;21.75;3.03;;;17.70;99.90;;;;;;5050422;28;20037;-66
2022/10/01 08:18:20;;;;;;;23.25;2.92;;;17.50;99.90;;;;;;5050403;28;20044;-66
2022/10/01 08:20:46;;;;;;;13.70;2.42;;;17.60;99.90;;;;;;5050373;28;20051;-67
2022/10/01 08:23:13;;;;;;;17.77;2.10;;;17.50;99.90;;;;;;5050397;28;20037;-67
2022/10/01 08:25:40;;;;;;;15.10;2.55;;;17.50;99.90;;;;;;5050321;28;20479;-66
2022/10/01 08:28:07;;;;;;;13.23;2.10;;;16.80;99.90;;;;;;5051507;28;20052;-66
2022/10/01 08:30:35;;;;;;;12.25;2.10;;;17.00;99.90;;;;;;5050086;28;20049;-67
2022/10/01 08:33:00;;;;;;;10.82;2.25;;;17.50;99.90;;;;;;5050264;28;20055;-66
2022/10/01 08:35:27;;;;;;;11.27;2.30;;;18.10;99.90;;;;;;5050187;28;20054;-66
2022/10/01 08:37:56;;;;;;;18.80;3.22;;;18.40;99.90;;;;;;5051438;28;20033;-67
2022/10/01 08:40:22;;;;;;;21.17;3.55;;;18.30;99.90;;;;;;5049849;28;20074;-67
2022/10/01 08:43:02;;;;;;;15.18;2.25;;;18.60;99.90;;;;;;5051560;28;20055;-66
2022/10/01 08:45:50;;;;;;;19.45;3.38;;;18.40;99.90;;;;;;5051420;28;20148;-66
2022/10/01 08:48:36;;;;;;;28.65;3.38;;;18.10;99.90;;;;;;5050060;28;20040;-67
2022/10/01 08:51:12;;;;;;;20.73;2.58;;;17.80;99.90;;;;;;5050279;28;20047;-66
2022/10/01 08:53:44;;;;;;;26.90;3.37;;;17.50;99.90;;;;;;5051485;28;20040;-66
2022/10/01 08:56:32;;;;;;;15.02;2.83;;;17.20;99.90;;;;;;5050123;28;20037;-65
2022/10/01 08:59:04;;;;;;;18.48;2.40;;;16.90;99.90;;;;;;5050028;28;20037;-65
2022/10/01 09:01:30;;;;;;;28.67;3.78;;;16.70;99.90;;;;;;5049783;28;20037;-66
2022/10/01 09:03:57;;;;;;;27.40;4.00;;;16.60;99.90;;;;;;5050161;28;20060;-66
2022/10/01 09:06:25;;;;;;;26.10;3.50;;;16.60;99.90;;;;;;5051291;28;20044;-66
2022/10/01 09:09:28;;;;;;;31.00;3.78;;;16.70;99.90;;;;;;5051199;28;20167;-66
2022/10/01 09:12:07;;;;;;;33.45;3.72;;;16.60;99.90;;;;;;5049774;28;20114;-66
2022/10/01 09:15:14;;;;;;;29.40;4.57;;;16.70;99.90;;;;;;5049584;28;20061;-65
2022/10/01 09:17:52;;;;;;;28.20;4.38;;;16.70;99.90;;;;;;5049699;28;20410;-67
2022/10/01 09:20:33;;;;;;;15.65;2.63;;;16.60;99.90;;;;;;5033269;28;20171;-67
2022/10/01 09:23:29;;;;;;;33.72;4.25;;;16.70;99.90;;;;;;5049989;28;20041;-67
2022/10/01 09:25:57;;;;;;;13.00;2.63;;;16.70;99.90;;;;;;5051322;28;20537;-66
2022/10/01 09:28:27;;;;;;;14.68;2.38;;;16.80;99.90;;;;;;5036977;28;20140;-67
2022/10/01 09:31:02;;;;;;;21.30;3.00;;;16.90;99.90;;;;;;5053355;28;20036;-66
2022/10/01 09:33:35;;;;;;;28.30;3.78;;;16.80;99.90;;;;;;5053555;28;20040;-66
2022/10/01 09:36:22;;;;;;;26.02;3.28;;;17.10;99.90;;;;;;5053490;28;20037;-66
2022/10/01 09:39:11;;;;;;;20.30;2.97;;;17.30;99.90;;;;;;5053279;28;20120;-67
2022/10/01 09:41:37;;;;;;;31.50;3.53;;;17.50;99.90;;;;;;5053176;28;20474;-67
2022/10/01 09:44:04;;;;;;;29.38;3.35;;;17.70;99.90;;;;;;5036674;28;20047;-66
2022/10/01 09:46:30;;;;;;;25.88;3.65;;;17.70;99.90;;;;;;5053114;28;20529;-66
2022/10/01 09:49:04;;;;;;;25.92;3.20;;;17.80;99.90;;;;;;5053213;28;20053;-67
2022/10/01 09:51:41;;;;;;;28.52;3.72;;;17.70;99.90;;;;;;5053460;28;20048;-66
2022/10/01 09:54:25;;;;;;;26.90;3.45;;;17.80;99.90;;;;;;5053050;28;20490;-67
2022/10/01 09:57:00;;;;;;;41.75;3.88;;;17.50;99.90;;;;;;5053113;28;20409;-67
2022/10/01 09:59:55;;;;;;;35.50;4.90;;;18.30;99.90;;;;;;5053064;28;20033;-66
2022/10/01 10:02:40;;;;;;;42.00;5.20;;;17.40;99.90;;;;;;5053243;28;20085;-67
2022/10/01 10:05:12;;;;;;;33.38;4.38;;;17.40;99.90;;;;;;5052728;28;20071;-67
2022/10/01 10:07:42;;;;;;;30.35;4.10;;;17.50;99.90;;;;;;5052907;28;20044;-66
2022/10/01 10:10:29;;;;;;;30.80;3.42;;;17.60;99.90;;;;;;5052287;28;20068;-66
2022/10/01 10:13:16;;;;;;;23.00;3.35;;;17.60;99.90;;;;;;5052827;28;20102;-67
2022/10/01 10:15:58;;;;;;;16.17;3.03;;;18.10;99.90;;;;;;5052586;28;20052;-66
2022/10/01 10:18:37;;;;;;;15.13;2.80;;;18.20;99.90;;;;;;5052899;28;20049;-66
2022/10/01 10:21:06;;;;;;;14.20;2.47;;;18.70;99.90;;;;;;5052642;28;20095;-66
2022/10/01 10:23:33;;;;;;;22.38;3.40;;;18.70;99.90;;;;;;5052623;28;20647;-66
2022/10/01 10:26:01;;;;;;;13.60;2.50;;;18.70;99.90;;;;;;5052567;28;20094;-66
2022/10/01 10:28:37;;;;;;;8.60;1.80;;;18.70;99.90;;;;;;5052592;28;20047;-67
2022/10/01 10:31:14;;;;;;;10.52;2.25;;;18.60;99.90;;;;;;5052275;28;20124;-67
2022/10/01 10:33:46;;;;;;;9.35;2.15;;;18.70;99.90;;;;;;5052305;28;20033;-66
2022/10/01 10:36:15;;;;;;;18.38;3.33;;;19.10;99.90;;;;;;5052331;28;20454;-67
2022/10/01 10:38:44;;;;;;;11.63;2.50;;;18.70;99.90;;;;;;5051442;28;20032;-66
2022/10/01 10:41:15;;;;;;;18.90;2.95;;;18.80;99.90;;;;;;5052209;28;20037;-66
2022/10/01 10:43:43;;;;;;;14.07;2.58;;;18.90;99.90;;;;;;5053469;28;20033;-66
2022/10/01 10:46:09;;;;;;;8.38;2.13;;;18.90;99.90;;;;;;5052023;28;20044;-67
2022/10/01 10:48:42;;;;;;;15.88;3.33;;;19.00;99.90;;;;;;5052116;28;20048;-66
2022/10/01 10:51:09;;;;;;;12.35;2.35;;;19.10;99.90;;;;;;5052356;28;20049;-66
2022/10/01 10:53:45;;;;;;;13.75;2.53;;;19.10;99.90;;;;;;5052067;28;20391;-66
2022/10/01 10:56:17;;;;;;;;;;;19.30;99.90;;;;;;5032311;28;20120;-66
2022/10/01 10:58:44;;;;;;;15.95;2.53;;;19.10;99.90;;;;;;5032022;28;20374;-66
2022/10/01 11:01:16;;;;;;;22.50;2.90;;;19.10;99.90;;;;;;5031741;28;20049;-65
2022/10/01 11:04:13;;;;;;;13.30;2.67;;;18.90;99.90;;;;;;5031929;28;20470;-66
2022/10/01 11:06:39;;;;;;;;;;;18.90;99.90;;;;;;5015746;28;20167;-66
2022/10/01 11:09:09;;;;;;;18.27;2.60;;;19.20;99.90;;;;;;5031695;28;19955;-66
2022/10/01 11:11:37;;;;;;;18.33;2.42;;;18.90;99.90;;;;;;5031193;28;20572;-67
2022/10/01 11:14:41;;;;;;;11.52;2.25;;;18.70;99.90;;;;;;5031674;28;20045;-67
2022/10/01 11:17:37;;;;;;;21.17;3.05;;;18.70;99.90;;;;;;5043017;28;20055;-66
2022/10/01 11:20:15;;;;;;;17.30;2.95;;;18.80;99.90;;;;;;5052832;28;20041;-66
2022/10/01 11:23:05;;;;;;;18.35;3.17;;;19.10;99.90;;;;;;5051744;28;20139;-66
2022/10/01 11:26:02;;;;;;;21.08;3.05;;;19.10;99.90;;;;;;5052421;28;20045;-66
2022/10/01 11:28:43;;;;;;;30.95;3.67;;;19.30;99.90;;;;;;5021104;28;20048;-67
2022/10/01 11:31:30;;;;;;;16.90;3.42;;;19.30;99.90;;;;;;5051048;28;20036;-66
2022/10/01 11:34:30;;;;;;;27.75;5.03;;;19.40;99.90;;;;;;5052484;28;20052;-67
2022/10/01 11:37:09;;;;;;;15.88;3.38;;;19.50;99.90;;;;;;5052515;28;20048;-67
2022/10/01 11:39:38;;;;;;;23.30;3.80;;;19.40;99.90;;;;;;5051027;28;20151;-66
2022/10/01 11:42:12;;;;;;;20.48;3.65;;;19.20;99.90;;;;;;5052291;28;20052;-66
2022/10/01 11:45:00;;;;;;;14.63;2.72;;;19.40;99.90;;;;;;5052383;28;20048;-66
2022/10/01 11:47:32;;;;;;;15.45;2.83;;;19.30;99.90;;;;;;5052346;28;20103;-66
2022/10/01 11:50:03;;;;;;;24.40;4.65;;;19.80;99.90;;;;;;5050845;28;20056;-66
2022/10/01 11:52:57;;;;;;;20.30;3.40;;;19.50;99.90;;;;;;5051212;28;20045;-66
2022/10/01 11:58:50;;;;;;;15.98;3.25;;;19.80;99.90;;;;;;5051166;28;20498;-66
2022/10/01 12:01:30;;;;;;;18.02;3.72;;;19.80;99.90;;;;;;5051859;28;20045;-66
2022/10/01 12:04:21;;;;;;;20.27;4.20;;;19.90;99.90;;;;;;5050604;28;20529;-66
2022/10/01 12:07:01;;;;;;;16.20;3.28;;;19.90;99.90;;;;;;5034013;28;20459;-66
2022/10/01 12:10:01;;;;;;;14.48;3.28;;;19.50;99.90;;;;;;5051634;28;20051;-66
2022/10/01 12:12:37;;;;;;;17.08;2.80;;;18.90;99.90;;;;;;4999825;28;20092;-66
2022/10/01 12:15:40;;;;;;;19.60;3.33;;;18.60;99.90;;;;;;5050614;28;20382;-66
2022/10/01 12:18:26;;;;;;;21.17;3.33;;;18.30;99.90;;;;;;5041512;28;20068;-66
2022/10/01 12:20:56;;;;;;;26.15;3.90;;;18.40;99.90;;;;;;5051845;28;20044;-66
2022/10/01 12:23:27;;;;;;;24.50;3.72;;;18.30;99.90;;;;;;5051794;28;20462;-66
2022/10/01 12:26:01;;;;;;;22.33;3.50;;;18.60;99.90;;;;;;5051912;28;20029;-66
2022/10/01 12:28:51;;;;;;;25.33;4.10;;;18.80;99.90;;;;;;5051651;28;20542;-66
2022/10/01 12:31:23;;;;;;;19.60;2.75;;;19.10;99.90;;;;;;5050080;28;20552;-66
2022/10/01 12:34:05;;;;;;;12.20;2.28;;;19.00;99.90;;;;;;5051582;28;20792;-66
2022/10/01 12:37:19;;;;;;;12.90;2.15;;;18.90;99.90;;;;;;5051405;28;20491;-66
2022/10/01 12:40:05;;;;;;;10.27;2.47;;;19.00;99.90;;;;;;4976782;28;20049;-66
2022/10/01 12:42:52;;;;;;;19.17;2.90;;;19.00;99.90;;;;;;5009516;28;20042;-67
2022/10/01 12:45:45;;;;;;;19.38;3.10;;;19.00;99.90;;;;;;5025319;28;20210;-66
2022/10/01 12:48:20;;;;;;;24.63;3.30;;;18.90;99.90;;;;;;5035293;28;20112;-66
2022/10/01 12:51:21;;;;;;;21.17;4.15;;;19.00;99.90;;;;;;5045517;28;20040;-66
2022/10/01 12:54:02;;;;;;;13.48;3.13;;;18.90;99.90;;;;;;5031964;28;20041;-66
2022/10/01 12:56:36;;;;;;;14.20;3.42;;;19.10;99.90;;;;;;5033703;28;20490;-66
2022/10/01 12:59:27;;;;;;;19.88;3.35;;;19.10;99.90;;;;;;5033999;28;20124;-66
2022/10/01 13:02:30;;;;;;;24.80;3.25;;;19.10;99.90;;;;;;5035034;28;20502;-67
2022/10/01 13:05:18;;;;;;;21.08;4.03;;;19.00;99.90;;;;;;5036070;28;20046;-67
2022/10/01 13:07:55;;;;;;;19.08;2.88;;;19.20;99.90;;;;;;5044251;28;20041;-66
2022/10/01 13:10:50;;;;;;;21.90;3.03;;;19.10;99.90;;;;;;5044163;28;20267;-66
2022/10/01 13:13:31;;;;;;;11.38;2.95;;;19.10;99.90;;;;;;5043153;28;20060;-66